sensor_id;sensor_type;location;lat;lon;timestamp;P1;durP1;ratioP1;P2;durP2;ratioP2
44214;SDS011;29884;47.450;19.124;2023-08-30T00:00:19;1.13;;;0.22;;
44214;SDS011;29884;47.450;19.124;2023-08-30T00:02:48;0.38;;;0.30;;
44214;SDS011;29884;47.450;19.124;2023-08-30T00:05:13;0.47;;;0.20;;
44214;SDS011;29884;47.450;19.124;2023-08-30T00:07:39;0.47;;;0.30;;
44214;SDS011;29884;47.450;19.124;2023-08-30T00:10:06;0.43;;;0.30;;
44214;SDS011;29884;47.450;19.124;2023-08-30T00:12:33;0.65;;;0.20;;
44214;SDS011;29884;47.450;19.124;2023-08-30T00:14:59;0.50;;;0.20;;
44214;SDS011;29884;47.450;19.124;2023-08-30T00:17:24;0.47;;;0.25;;
44214;SDS011;29884;47.450;19.124;2023-08-30T00:19:50;1.48;;;0.32;;
44214;SDS011;29884;47.450;19.124;2023-08-30T00:22:18;0.30;;;0.30;;
44214;SDS011;29884;47.450;19.124;2023-08-30T00:24:44;0.70;;;0.35;;
44214;SDS011;29884;47.450;19.124;2023-08-30T00:27:10;0.50;;;0.30;;
44214;SDS011;29884;47.450;19.124;2023-08-30T00:29:37;2.00;;;0.40;;
44214;SDS011;29884;47.450;19.124;2023-08-30T00:32:03;1.10;;;0.38;;
44214;SDS011;29884;47.450;19.124;2023-08-30T00:34:28;0.70;;;0.50;;
44214;SDS011;29884;47.450;19.124;2023-08-30T00:36:54;1.13;;;0.50;;
44214;SDS011;29884;47.450;19.124;2023-08-30T00:39:20;1.45;;;0.50;;
44214;SDS011;29884;47.450;19.124;2023-08-30T00:41:46;0.68;;;0.47;;
44214;SDS011;29884;47.450;19.124;2023-08-30T00:44:11;0.75;;;0.50;;
44214;SDS011;29884;47.450;19.124;2023-08-30T00:46:37;1.13;;;0.65;;
44214;SDS011;29884;47.450;19.124;2023-08-30T00:49:03;1.08;;;0.52;;
44214;SDS011;29884;47.450;19.124;2023-08-30T00:51:30;0.80;;;0.50;;
44214;SDS011;29884;47.450;19.124;2023-08-30T00:53:56;1.25;;;0.50;;
44214;SDS011;29884;47.450;19.124;2023-08-30T00:56:23;2.97;;;0.60;;
44214;SDS011;29884;47.450;19.124;2023-08-30T00:58:49;1.30;;;0.80;;
44214;SDS011;29884;47.450;19.124;2023-08-30T01:01:16;1.25;;;0.70;;
44214;SDS011;29884;47.450;19.124;2023-08-30T01:03:43;1.50;;;0.90;;
44214;SDS011;29884;47.450;19.124;2023-08-30T01:06:09;1.27;;;0.90;;
44214;SDS011;29884;47.450;19.124;2023-08-30T01:08:35;1.67;;;1.00;;
44214;SDS011;29884;47.450;19.124;2023-08-30T01:13:35;1.88;;;1.10;;
44214;SDS011;29884;47.450;19.124;2023-08-30T01:16:10;1.85;;;1.15;;
44214;SDS011;29884;47.450;19.124;2023-08-30T01:18:36;1.60;;;1.10;;
44214;SDS011;29884;47.450;19.124;2023-08-30T01:21:04;2.03;;;1.00;;
44214;SDS011;29884;47.450;19.124;2023-08-30T01:26:24;1.70;;;1.10;;
44214;SDS011;29884;47.450;19.124;2023-08-30T01:29:14;2.90;;;1.08;;
44214;SDS011;29884;47.450;19.124;2023-08-30T01:31:44;1.90;;;1.10;;
44214;SDS011;29884;47.450;19.124;2023-08-30T01:34:11;1.30;;;1.10;;
44214;SDS011;29884;47.450;19.124;2023-08-30T01:36:38;3.25;;;1.30;;
44214;SDS011;29884;47.450;19.124;2023-08-30T01:39:07;1.60;;;1.15;;
44214;SDS011;29884;47.450;19.124;2023-08-30T01:41:35;1.50;;;1.15;;
44214;SDS011;29884;47.450;19.124;2023-08-30T01:44:02;3.42;;;1.40;;
44214;SDS011;29884;47.450;19.124;2023-08-30T01:46:30;2.08;;;1.50;;
44214;SDS011;29884;47.450;19.124;2023-08-30T01:48:58;2.45;;;1.30;;
44214;SDS011;29884;47.450;19.124;2023-08-30T01:51:24;2.10;;;1.40;;
44214;SDS011;29884;47.450;19.124;2023-08-30T01:53:50;1.95;;;1.38;;
44214;SDS011;29884;47.450;19.124;2023-08-30T01:56:18;2.28;;;1.52;;
44214;SDS011;29884;47.450;19.124;2023-08-30T01:58:43;2.17;;;1.20;;
44214;SDS011;29884;47.450;19.124;2023-08-30T02:01:09;2.47;;;1.40;;
44214;SDS011;29884;47.450;19.124;2023-08-30T02:03:35;2.58;;;1.40;;
44214;SDS011;29884;47.450;19.124;2023-08-30T02:06:06;2.55;;;1.42;;
44214;SDS011;29884;47.450;19.124;2023-08-30T02:08:38;2.40;;;1.70;;
44214;SDS011;29884;47.450;19.124;2023-08-30T02:11:14;1.88;;;1.40;;
44214;SDS011;29884;47.450;19.124;2023-08-30T02:13:44;2.95;;;1.70;;
44214;SDS011;29884;47.450;19.124;2023-08-30T02:16:12;2.05;;;1.40;;
44214;SDS011;29884;47.450;19.124;2023-08-30T02:18:39;2.53;;;1.40;;
44214;SDS011;29884;47.450;19.124;2023-08-30T02:21:05;2.53;;;1.50;;
44214;SDS011;29884;47.450;19.124;2023-08-30T02:23:31;3.15;;;1.70;;
44214;SDS011;29884;47.450;19.124;2023-08-30T02:25:57;1.83;;;1.58;;
44214;SDS011;29884;47.450;19.124;2023-08-30T02:28:25;1.80;;;1.40;;
44214;SDS011;29884;47.450;19.124;2023-08-30T02:30:52;1.80;;;1.50;;
44214;SDS011;29884;47.450;19.124;2023-08-30T02:33:18;1.75;;;1.40;;
44214;SDS011;29884;47.450;19.124;2023-08-30T02:35:44;2.05;;;1.50;;
44214;SDS011;29884;47.450;19.124;2023-08-30T02:38:10;2.28;;;1.50;;
44214;SDS011;29884;47.450;19.124;2023-08-30T02:40:36;4.90;;;1.80;;
44214;SDS011;29884;47.450;19.124;2023-08-30T02:43:01;2.05;;;1.25;;
44214;SDS011;29884;47.450;19.124;2023-08-30T02:45:27;3.70;;;1.63;;
44214;SDS011;29884;47.450;19.124;2023-08-30T02:47:55;1.70;;;1.30;;
44214;SDS011;29884;47.450;19.124;2023-08-30T02:50:22;1.98;;;1.40;;
44214;SDS011;29884;47.450;19.124;2023-08-30T02:52:48;2.55;;;1.48;;
44214;SDS011;29884;47.450;19.124;2023-08-30T02:55:14;1.90;;;1.30;;
44214;SDS011;29884;47.450;19.124;2023-08-30T02:57:40;2.10;;;1.33;;
44214;SDS011;29884;47.450;19.124;2023-08-30T03:00:05;1.83;;;1.40;;
44214;SDS011;29884;47.450;19.124;2023-08-30T03:02:32;1.92;;;1.35;;
44214;SDS011;29884;47.450;19.124;2023-08-30T03:04:58;1.50;;;1.23;;
44214;SDS011;29884;47.450;19.124;2023-08-30T03:07:24;4.13;;;1.50;;
44214;SDS011;29884;47.450;19.124;2023-08-30T03:09:53;2.08;;;1.50;;
44214;SDS011;29884;47.450;19.124;2023-08-30T03:12:19;2.45;;;1.58;;
44214;SDS011;29884;47.450;19.124;2023-08-30T03:14:45;1.92;;;1.40;;
44214;SDS011;29884;47.450;19.124;2023-08-30T03:17:11;2.50;;;1.50;;
44214;SDS011;29884;47.450;19.124;2023-08-30T03:19:36;3.28;;;1.70;;
44214;SDS011;29884;47.450;19.124;2023-08-30T03:22:02;2.35;;;1.50;;
44214;SDS011;29884;47.450;19.124;2023-08-30T03:24:28;2.10;;;1.45;;
44214;SDS011;29884;47.450;19.124;2023-08-30T03:26:54;3.03;;;1.75;;
44214;SDS011;29884;47.450;19.124;2023-08-30T03:29:20;3.33;;;1.90;;
44214;SDS011;29884;47.450;19.124;2023-08-30T03:31:45;3.15;;;2.03;;
44214;SDS011;29884;47.450;19.124;2023-08-30T03:34:11;3.35;;;2.17;;
44214;SDS011;29884;47.450;19.124;2023-08-30T03:36:37;5.38;;;2.45;;
44214;SDS011;29884;47.450;19.124;2023-08-30T03:39:03;3.83;;;1.67;;
44214;SDS011;29884;47.450;19.124;2023-08-30T03:41:29;3.65;;;1.90;;
44214;SDS011;29884;47.450;19.124;2023-08-30T03:43:55;2.88;;;1.90;;
44214;SDS011;29884;47.450;19.124;2023-08-30T03:46:20;6.63;;;2.45;;
44214;SDS011;29884;47.450;19.124;2023-08-30T03:48:46;7.97;;;2.53;;
44214;SDS011;29884;47.450;19.124;2023-08-30T03:51:11;5.50;;;2.50;;
44214;SDS011;29884;47.450;19.124;2023-08-30T03:53:37;4.63;;;2.20;;
44214;SDS011;29884;47.450;19.124;2023-08-30T03:56:03;4.13;;;2.03;;
44214;SDS011;29884;47.450;19.124;2023-08-30T03:58:29;5.28;;;2.38;;
44214;SDS011;29884;47.450;19.124;2023-08-30T04:00:56;5.20;;;2.50;;
44214;SDS011;29884;47.450;19.124;2023-08-30T04:03:22;2.95;;;1.95;;
44214;SDS011;29884;47.450;19.124;2023-08-30T04:05:47;3.25;;;2.30;;
44214;SDS011;29884;47.450;19.124;2023-08-30T04:08:19;3.20;;;2.08;;
44214;SDS011;29884;47.450;19.124;2023-08-30T04:10:44;3.28;;;2.22;;
44214;SDS011;29884;47.450;19.124;2023-08-30T04:13:12;2.95;;;2.13;;
44214;SDS011;29884;47.450;19.124;2023-08-30T04:15:38;3.53;;;2.20;;
44214;SDS011;29884;47.450;19.124;2023-08-30T04:18:04;2.90;;;2.10;;
44214;SDS011;29884;47.450;19.124;2023-08-30T04:20:31;3.50;;;2.20;;
44214;SDS011;29884;47.450;19.124;2023-08-30T04:22:57;2.65;;;1.85;;
44214;SDS011;29884;47.450;19.124;2023-08-30T04:25:26;3.50;;;1.90;;
44214;SDS011;29884;47.450;19.124;2023-08-30T04:27:53;3.90;;;2.00;;
44214;SDS011;29884;47.450;19.124;2023-08-30T04:30:18;2.55;;;1.90;;
44214;SDS011;29884;47.450;19.124;2023-08-30T04:32:44;3.65;;;2.10;;
44214;SDS011;29884;47.450;19.124;2023-08-30T04:35:10;2.65;;;2.05;;
44214;SDS011;29884;47.450;19.124;2023-08-30T04:37:36;3.25;;;1.75;;
44214;SDS011;29884;47.450;19.124;2023-08-30T04:40:03;3.20;;;2.08;;
44214;SDS011;29884;47.450;19.124;2023-08-30T04:42:30;2.50;;;2.00;;
44214;SDS011;29884;47.450;19.124;2023-08-30T04:44:56;2.70;;;1.90;;
44214;SDS011;29884;47.450;19.124;2023-08-30T04:47:24;3.38;;;2.08;;
44214;SDS011;29884;47.450;19.124;2023-08-30T04:49:53;5.30;;;2.03;;
44214;SDS011;29884;47.450;19.124;2023-08-30T04:52:19;3.30;;;2.03;;
44214;SDS011;29884;47.450;19.124;2023-08-30T04:54:45;4.03;;;2.00;;
44214;SDS011;29884;47.450;19.124;2023-08-30T04:57:13;3.20;;;1.85;;
44214;SDS011;29884;47.450;19.124;2023-08-30T04:59:41;3.15;;;2.05;;
44214;SDS011;29884;47.450;19.124;2023-08-30T05:02:07;3.17;;;2.08;;
44214;SDS011;29884;47.450;19.124;2023-08-30T05:04:33;4.82;;;2.03;;
44214;SDS011;29884;47.450;19.124;2023-08-30T05:06:58;3.22;;;2.05;;
44214;SDS011;29884;47.450;19.124;2023-08-30T05:09:24;3.08;;;2.10;;
44214;SDS011;29884;47.450;19.124;2023-08-30T05:11:51;2.78;;;2.38;;
44214;SDS011;29884;47.450;19.124;2023-08-30T05:14:17;3.83;;;2.30;;
44214;SDS011;29884;47.450;19.124;2023-08-30T05:16:43;3.58;;;1.92;;
44214;SDS011;29884;47.450;19.124;2023-08-30T05:19:08;4.60;;;3.05;;
44214;SDS011;29884;47.450;19.124;2023-08-30T05:21:34;9.50;;;3.05;;
44214;SDS011;29884;47.450;19.124;2023-08-30T05:24:01;5.55;;;3.28;;
44214;SDS011;29884;47.450;19.124;2023-08-30T05:26:27;4.47;;;2.80;;
44214;SDS011;29884;47.450;19.124;2023-08-30T05:28:53;4.97;;;3.30;;
44214;SDS011;29884;47.450;19.124;2023-08-30T05:31:19;6.15;;;3.10;;
44214;SDS011;29884;47.450;19.124;2023-08-30T05:33:45;3.92;;;2.80;;
44214;SDS011;29884;47.450;19.124;2023-08-30T05:36:10;5.10;;;3.10;;
44214;SDS011;29884;47.450;19.124;2023-08-30T05:38:36;5.03;;;3.20;;
44214;SDS011;29884;47.450;19.124;2023-08-30T05:41:02;5.53;;;3.33;;
44214;SDS011;29884;47.450;19.124;2023-08-30T05:43:27;7.07;;;3.63;;
44214;SDS011;29884;47.450;19.124;2023-08-30T05:45:53;6.75;;;3.55;;
44214;SDS011;29884;47.450;19.124;2023-08-30T05:48:19;5.07;;;3.20;;
44214;SDS011;29884;47.450;19.124;2023-08-30T05:50:45;4.68;;;3.35;;
44214;SDS011;29884;47.450;19.124;2023-08-30T05:53:11;6.65;;;3.55;;
44214;SDS011;29884;47.450;19.124;2023-08-30T05:55:37;7.47;;;3.88;;
44214;SDS011;29884;47.450;19.124;2023-08-30T05:58:03;6.43;;;3.30;;
44214;SDS011;29884;47.450;19.124;2023-08-30T06:00:28;4.10;;;2.65;;
44214;SDS011;29884;47.450;19.124;2023-08-30T06:02:54;4.95;;;3.03;;
44214;SDS011;29884;47.450;19.124;2023-08-30T06:05:20;6.53;;;3.25;;
44214;SDS011;29884;47.450;19.124;2023-08-30T06:07:46;6.38;;;3.40;;
44214;SDS011;29884;47.450;19.124;2023-08-30T06:10:12;7.22;;;3.40;;
44214;SDS011;29884;47.450;19.124;2023-08-30T06:12:38;4.82;;;3.13;;
44214;SDS011;29884;47.450;19.124;2023-08-30T06:15:03;5.43;;;3.53;;
44214;SDS011;29884;47.450;19.124;2023-08-30T06:17:30;5.60;;;3.33;;
44214;SDS011;29884;47.450;19.124;2023-08-30T06:19:55;4.30;;;2.80;;
44214;SDS011;29884;47.450;19.124;2023-08-30T06:22:21;5.28;;;2.85;;
44214;SDS011;29884;47.450;19.124;2023-08-30T06:24:47;5.40;;;2.97;;
44214;SDS011;29884;47.450;19.124;2023-08-30T06:27:13;4.25;;;2.70;;
44214;SDS011;29884;47.450;19.124;2023-08-30T06:29:38;3.35;;;2.10;;
44214;SDS011;29884;47.450;19.124;2023-08-30T06:32:04;4.38;;;2.60;;
44214;SDS011;29884;47.450;19.124;2023-08-30T06:34:30;4.70;;;2.45;;
44214;SDS011;29884;47.450;19.124;2023-08-30T06:36:56;5.05;;;2.63;;
44214;SDS011;29884;47.450;19.124;2023-08-30T06:39:21;5.07;;;2.30;;
44214;SDS011;29884;47.450;19.124;2023-08-30T06:41:47;4.22;;;2.28;;
44214;SDS011;29884;47.450;19.124;2023-08-30T06:44:13;5.32;;;2.53;;
44214;SDS011;29884;47.450;19.124;2023-08-30T06:46:39;3.42;;;2.28;;
44214;SDS011;29884;47.450;19.124;2023-08-30T06:49:05;3.72;;;2.45;;
44214;SDS011;29884;47.450;19.124;2023-08-30T06:51:31;4.72;;;2.85;;
44214;SDS011;29884;47.450;19.124;2023-08-30T06:53:56;3.88;;;2.45;;
44214;SDS011;29884;47.450;19.124;2023-08-30T06:56:25;4.35;;;2.90;;
44214;SDS011;29884;47.450;19.124;2023-08-30T06:58:51;4.80;;;2.30;;
44214;SDS011;29884;47.450;19.124;2023-08-30T07:01:17;3.85;;;2.80;;
44214;SDS011;29884;47.450;19.124;2023-08-30T07:03:43;3.83;;;2.70;;
44214;SDS011;29884;47.450;19.124;2023-08-30T07:06:09;4.93;;;2.25;;
44214;SDS011;29884;47.450;19.124;2023-08-30T07:08:35;5.38;;;2.70;;
44214;SDS011;29884;47.450;19.124;2023-08-30T07:11:00;5.90;;;2.90;;
44214;SDS011;29884;47.450;19.124;2023-08-30T07:13:26;6.15;;;2.90;;
44214;SDS011;29884;47.450;19.124;2023-08-30T07:15:52;5.05;;;2.88;;
44214;SDS011;29884;47.450;19.124;2023-08-30T07:18:18;3.17;;;2.40;;
44214;SDS011;29884;47.450;19.124;2023-08-30T07:20:44;3.28;;;2.70;;
44214;SDS011;29884;47.450;19.124;2023-08-30T07:23:10;5.50;;;3.05;;
44214;SDS011;29884;47.450;19.124;2023-08-30T07:25:36;3.83;;;2.67;;
44214;SDS011;29884;47.450;19.124;2023-08-30T07:28:03;5.03;;;2.45;;
44214;SDS011;29884;47.450;19.124;2023-08-30T07:30:29;3.80;;;2.47;;
44214;SDS011;29884;47.450;19.124;2023-08-30T07:32:55;4.90;;;2.47;;
44214;SDS011;29884;47.450;19.124;2023-08-30T07:35:21;5.07;;;2.60;;
44214;SDS011;29884;47.450;19.124;2023-08-30T07:37:47;4.35;;;3.13;;
44214;SDS011;29884;47.450;19.124;2023-08-30T07:40:13;3.80;;;2.55;;
44214;SDS011;29884;47.450;19.124;2023-08-30T07:42:38;3.58;;;2.72;;
44214;SDS011;29884;47.450;19.124;2023-08-30T07:45:04;3.58;;;2.45;;
44214;SDS011;29884;47.450;19.124;2023-08-30T07:47:30;3.42;;;2.35;;
44214;SDS011;29884;47.450;19.124;2023-08-30T07:49:56;4.28;;;2.80;;
44214;SDS011;29884;47.450;19.124;2023-08-30T07:52:22;6.00;;;2.97;;
44214;SDS011;29884;47.450;19.124;2023-08-30T07:54:48;4.05;;;2.83;;
44214;SDS011;29884;47.450;19.124;2023-08-30T07:57:14;3.67;;;2.58;;
44214;SDS011;29884;47.450;19.124;2023-08-30T07:59:39;4.20;;;2.53;;
44214;SDS011;29884;47.450;19.124;2023-08-30T08:02:05;4.15;;;2.97;;
44214;SDS011;29884;47.450;19.124;2023-08-30T08:04:33;5.82;;;3.10;;
44214;SDS011;29884;47.450;19.124;2023-08-30T08:06:59;5.00;;;2.85;;
44214;SDS011;29884;47.450;19.124;2023-08-30T08:09:25;4.22;;;2.78;;
44214;SDS011;29884;47.450;19.124;2023-08-30T08:11:51;4.20;;;3.05;;
44214;SDS011;29884;47.450;19.124;2023-08-30T08:14:16;5.55;;;3.22;;
44214;SDS011;29884;47.450;19.124;2023-08-30T08:16:42;4.75;;;3.40;;
44214;SDS011;29884;47.450;19.124;2023-08-30T08:19:08;3.50;;;2.55;;
44214;SDS011;29884;47.450;19.124;2023-08-30T08:21:34;4.35;;;3.33;;
44214;SDS011;29884;47.450;19.124;2023-08-30T08:24:00;3.10;;;2.45;;
44214;SDS011;29884;47.450;19.124;2023-08-30T08:26:26;3.88;;;3.15;;
44214;SDS011;29884;47.450;19.124;2023-08-30T08:28:53;3.88;;;2.88;;
44214;SDS011;29884;47.450;19.124;2023-08-30T08:31:19;6.72;;;2.97;;
44214;SDS011;29884;47.450;19.124;2023-08-30T08:33:45;6.07;;;3.58;;
44214;SDS011;29884;47.450;19.124;2023-08-30T08:36:11;5.72;;;3.15;;
44214;SDS011;29884;47.450;19.124;2023-08-30T08:38:37;3.70;;;2.78;;
44214;SDS011;29884;47.450;19.124;2023-08-30T08:41:07;5.47;;;2.83;;
44214;SDS011;29884;47.450;19.124;2023-08-30T08:43:39;4.65;;;3.35;;
44214;SDS011;29884;47.450;19.124;2023-08-30T08:46:06;4.15;;;2.70;;
44214;SDS011;29884;47.450;19.124;2023-08-30T08:48:37;4.03;;;2.83;;
44214;SDS011;29884;47.450;19.124;2023-08-30T08:51:05;3.78;;;2.88;;
44214;SDS011;29884;47.450;19.124;2023-08-30T08:53:32;3.35;;;2.45;;
44214;SDS011;29884;47.450;19.124;2023-08-30T08:55:58;5.25;;;2.75;;
44214;SDS011;29884;47.450;19.124;2023-08-30T08:58:27;4.20;;;2.38;;
44214;SDS011;29884;47.450;19.124;2023-08-30T09:00:53;4.82;;;3.25;;
44214;SDS011;29884;47.450;19.124;2023-08-30T09:03:19;3.85;;;3.20;;
44214;SDS011;29884;47.450;19.124;2023-08-30T09:05:47;4.10;;;2.95;;
44214;SDS011;29884;47.450;19.124;2023-08-30T09:08:14;3.58;;;2.88;;
44214;SDS011;29884;47.450;19.124;2023-08-30T09:10:40;3.72;;;2.72;;
44214;SDS011;29884;47.450;19.124;2023-08-30T09:13:06;3.65;;;2.70;;
44214;SDS011;29884;47.450;19.124;2023-08-30T09:15:32;4.93;;;2.85;;
44214;SDS011;29884;47.450;19.124;2023-08-30T09:17:59;3.53;;;2.70;;
44214;SDS011;29884;47.450;19.124;2023-08-30T09:20:25;3.92;;;2.85;;
44214;SDS011;29884;47.450;19.124;2023-08-30T09:22:51;4.32;;;2.85;;
44214;SDS011;29884;47.450;19.124;2023-08-30T09:25:24;4.10;;;2.58;;
44214;SDS011;29884;47.450;19.124;2023-08-30T09:27:56;5.07;;;2.28;;
44214;SDS011;29884;47.450;19.124;2023-08-30T09:30:24;4.13;;;2.53;;
44214;SDS011;29884;47.450;19.124;2023-08-30T09:32:50;5.15;;;2.72;;
44214;SDS011;29884;47.450;19.124;2023-08-30T09:35:16;3.28;;;2.70;;
44214;SDS011;29884;47.450;19.124;2023-08-30T09:37:45;3.47;;;2.70;;
44214;SDS011;29884;47.450;19.124;2023-08-30T09:40:10;4.25;;;2.38;;
44214;SDS011;29884;47.450;19.124;2023-08-30T09:42:42;3.63;;;2.50;;
44214;SDS011;29884;47.450;19.124;2023-08-30T09:45:23;3.30;;;1.90;;
44214;SDS011;29884;47.450;19.124;2023-08-30T09:47:49;2.78;;;2.13;;
44214;SDS011;29884;47.450;19.124;2023-08-30T09:50:19;3.08;;;2.30;;
44214;SDS011;29884;47.450;19.124;2023-08-30T09:52:46;3.72;;;1.92;;
44214;SDS011;29884;47.450;19.124;2023-08-30T09:55:16;3.45;;;2.20;;
44214;SDS011;29884;47.450;19.124;2023-08-30T09:57:43;3.38;;;2.20;;
44214;SDS011;29884;47.450;19.124;2023-08-30T10:00:10;2.55;;;1.88;;
44214;SDS011;29884;47.450;19.124;2023-08-30T10:02:43;3.50;;;1.92;;
44214;SDS011;29884;47.450;19.124;2023-08-30T10:05:12;2.83;;;1.80;;
44214;SDS011;29884;47.450;19.124;2023-08-30T10:07:41;2.95;;;2.00;;
44214;SDS011;29884;47.450;19.124;2023-08-30T10:10:08;3.40;;;2.28;;
44214;SDS011;29884;47.450;19.124;2023-08-30T10:12:35;3.20;;;2.10;;
44214;SDS011;29884;47.450;19.124;2023-08-30T10:15:02;3.33;;;2.10;;
44214;SDS011;29884;47.450;19.124;2023-08-30T10:17:28;3.30;;;2.17;;
44214;SDS011;29884;47.450;19.124;2023-08-30T10:19:57;3.25;;;1.80;;
44214;SDS011;29884;47.450;19.124;2023-08-30T10:22:25;3.63;;;1.85;;
44214;SDS011;29884;47.450;19.124;2023-08-30T10:24:52;2.63;;;1.70;;
44214;SDS011;29884;47.450;19.124;2023-08-30T10:27:23;2.88;;;1.45;;
44214;SDS011;29884;47.450;19.124;2023-08-30T10:29:51;2.88;;;1.73;;
44214;SDS011;29884;47.450;19.124;2023-08-30T10:32:20;3.08;;;1.70;;
44214;SDS011;29884;47.450;19.124;2023-08-30T10:34:49;1.98;;;1.50;;
44214;SDS011;29884;47.450;19.124;2023-08-30T10:37:16;2.63;;;1.42;;
44214;SDS011;29884;47.450;19.124;2023-08-30T10:39:48;2.85;;;1.60;;
44214;SDS011;29884;47.450;19.124;2023-08-30T10:42:15;2.65;;;1.40;;
44214;SDS011;29884;47.450;19.124;2023-08-30T10:44:51;2.40;;;1.70;;
44214;SDS011;29884;47.450;19.124;2023-08-30T10:49:54;4.35;;;1.45;;
44214;SDS011;29884;47.450;19.124;2023-08-30T10:52:21;2.88;;;1.48;;
44214;SDS011;29884;47.450;19.124;2023-08-30T10:54:47;2.65;;;1.52;;
44214;SDS011;29884;47.450;19.124;2023-08-30T10:57:14;2.22;;;1.45;;
44214;SDS011;29884;47.450;19.124;2023-08-30T10:59:47;2.28;;;1.40;;
44214;SDS011;29884;47.450;19.124;2023-08-30T11:02:34;2.17;;;1.10;;
44214;SDS011;29884;47.450;19.124;2023-08-30T11:05:00;1.85;;;1.20;;
44214;SDS011;29884;47.450;19.124;2023-08-30T11:07:28;2.60;;;1.23;;
44214;SDS011;29884;47.450;19.124;2023-08-30T11:09:54;2.55;;;1.20;;
44214;SDS011;29884;47.450;19.124;2023-08-30T11:12:20;2.97;;;1.23;;
44214;SDS011;29884;47.450;19.124;2023-08-30T11:14:54;2.83;;;1.23;;
44214;SDS011;29884;47.450;19.124;2023-08-30T11:17:20;1.77;;;1.00;;
44214;SDS011;29884;47.450;19.124;2023-08-30T11:19:50;1.27;;;0.80;;
44214;SDS011;29884;47.450;19.124;2023-08-30T11:22:16;3.45;;;1.30;;
44214;SDS011;29884;47.450;19.124;2023-08-30T11:24:43;1.88;;;1.10;;
44214;SDS011;29884;47.450;19.124;2023-08-30T11:27:12;2.03;;;1.00;;
44214;SDS011;29884;47.450;19.124;2023-08-30T11:29:40;1.50;;;0.90;;
44214;SDS011;29884;47.450;19.124;2023-08-30T11:32:07;1.73;;;0.98;;
44214;SDS011;29884;47.450;19.124;2023-08-30T11:34:33;1.50;;;0.90;;
44214;SDS011;29884;47.450;19.124;2023-08-30T11:36:58;1.77;;;1.00;;
44214;SDS011;29884;47.450;19.124;2023-08-30T11:39:26;1.17;;;0.82;;
44214;SDS011;29884;47.450;19.124;2023-08-30T11:41:54;1.50;;;0.90;;
44214;SDS011;29884;47.450;19.124;2023-08-30T11:44:21;1.60;;;0.85;;
44214;SDS011;29884;47.450;19.124;2023-08-30T11:46:48;1.10;;;0.80;;
44214;SDS011;29884;47.450;19.124;2023-08-30T11:49:17;1.75;;;0.80;;
44214;SDS011;29884;47.450;19.124;2023-08-30T11:51:43;1.73;;;0.75;;
44214;SDS011;29884;47.450;19.124;2023-08-30T11:54:09;1.27;;;0.80;;
44214;SDS011;29884;47.450;19.124;2023-08-30T11:56:36;1.50;;;0.70;;
44214;SDS011;29884;47.450;19.124;2023-08-30T11:59:02;1.13;;;0.75;;
44214;SDS011;29884;47.450;19.124;2023-08-30T12:01:29;1.42;;;0.70;;
44214;SDS011;29884;47.450;19.124;2023-08-30T12:03:55;1.45;;;0.60;;
44214;SDS011;29884;47.450;19.124;2023-08-30T12:06:22;1.30;;;0.70;;
44214;SDS011;29884;47.450;19.124;2023-08-30T12:08:49;1.40;;;0.70;;
44214;SDS011;29884;47.450;19.124;2023-08-30T12:11:22;1.05;;;0.65;;
44214;SDS011;29884;47.450;19.124;2023-08-30T12:13:48;1.75;;;0.73;;
44214;SDS011;29884;47.450;19.124;2023-08-30T12:16:16;1.25;;;0.60;;
44214;SDS011;29884;47.450;19.124;2023-08-30T12:18:42;1.02;;;0.52;;
44214;SDS011;29884;47.450;19.124;2023-08-30T12:21:08;1.52;;;0.60;;
44214;SDS011;29884;47.450;19.124;2023-08-30T12:23:34;1.15;;;0.60;;
44214;SDS011;29884;47.450;19.124;2023-08-30T12:28:29;1.08;;;0.65;;
44214;SDS011;29884;47.450;19.124;2023-08-30T12:30:55;0.80;;;0.60;;
44214;SDS011;29884;47.450;19.124;2023-08-30T12:33:22;0.80;;;0.55;;
44214;SDS011;29884;47.450;19.124;2023-08-30T12:35:50;0.85;;;0.50;;
44214;SDS011;29884;47.450;19.124;2023-08-30T12:38:16;2.72;;;0.60;;
44214;SDS011;29884;47.450;19.124;2023-08-30T12:40:45;0.82;;;0.50;;
44214;SDS011;29884;47.450;19.124;2023-08-30T12:43:15;0.95;;;0.60;;
44214;SDS011;29884;47.450;19.124;2023-08-30T12:45:42;2.15;;;0.60;;
44214;SDS011;29884;47.450;19.124;2023-08-30T12:48:09;2.88;;;0.63;;
44214;SDS011;29884;47.450;19.124;2023-08-30T12:50:36;1.35;;;0.60;;
44214;SDS011;29884;47.450;19.124;2023-08-30T12:53:05;0.90;;;0.60;;
44214;SDS011;29884;47.450;19.124;2023-08-30T12:55:32;1.23;;;0.50;;
44214;SDS011;29884;47.450;19.124;2023-08-30T12:57:59;1.20;;;0.57;;
44214;SDS011;29884;47.450;19.124;2023-08-30T13:00:25;1.05;;;0.70;;
44214;SDS011;29884;47.450;19.124;2023-08-30T13:02:51;2.58;;;0.50;;
44214;SDS011;29884;47.450;19.124;2023-08-30T13:05:17;0.95;;;0.60;;
44214;SDS011;29884;47.450;19.124;2023-08-30T13:07:43;0.88;;;0.55;;
44214;SDS011;29884;47.450;19.124;2023-08-30T13:10:09;1.40;;;0.70;;
44214;SDS011;29884;47.450;19.124;2023-08-30T13:12:35;1.63;;;0.85;;
44214;SDS011;29884;47.450;19.124;2023-08-30T13:15:01;1.30;;;0.60;;
44214;SDS011;29884;47.450;19.124;2023-08-30T13:17:28;1.60;;;0.85;;
44214;SDS011;29884;47.450;19.124;2023-08-30T13:19:54;1.75;;;0.70;;
44214;SDS011;29884;47.450;19.124;2023-08-30T13:22:21;0.75;;;0.60;;
44214;SDS011;29884;47.450;19.124;2023-08-30T13:24:47;1.00;;;0.70;;
44214;SDS011;29884;47.450;19.124;2023-08-30T13:27:13;0.90;;;0.70;;
44214;SDS011;29884;47.450;19.124;2023-08-30T13:29:39;1.85;;;0.70;;
44214;SDS011;29884;47.450;19.124;2023-08-30T13:32:05;1.40;;;0.60;;
44214;SDS011;29884;47.450;19.124;2023-08-30T13:34:31;1.20;;;0.60;;
44214;SDS011;29884;47.450;19.124;2023-08-30T13:36:56;1.00;;;0.50;;
44214;SDS011;29884;47.450;19.124;2023-08-30T13:39:22;1.02;;;0.60;;
44214;SDS011;29884;47.450;19.124;2023-08-30T13:41:48;1.08;;;0.60;;
44214;SDS011;29884;47.450;19.124;2023-08-30T13:44:14;0.90;;;0.60;;
44214;SDS011;29884;47.450;19.124;2023-08-30T13:46:40;1.00;;;0.70;;
44214;SDS011;29884;47.450;19.124;2023-08-30T13:49:06;1.08;;;0.60;;
44214;SDS011;29884;47.450;19.124;2023-08-30T13:51:31;1.30;;;0.60;;
44214;SDS011;29884;47.450;19.124;2023-08-30T13:53:57;2.35;;;0.60;;
44214;SDS011;29884;47.450;19.124;2023-08-30T13:56:23;1.30;;;0.60;;
44214;SDS011;29884;47.450;19.124;2023-08-30T13:58:49;0.63;;;0.50;;
44214;SDS011;29884;47.450;19.124;2023-08-30T14:01:15;0.88;;;0.50;;
44214;SDS011;29884;47.450;19.124;2023-08-30T14:03:41;1.05;;;0.50;;
44214;SDS011;29884;47.450;19.124;2023-08-30T14:06:07;1.52;;;0.50;;
44214;SDS011;29884;47.450;19.124;2023-08-30T14:08:33;0.90;;;0.50;;
44214;SDS011;29884;47.450;19.124;2023-08-30T14:10:59;3.17;;;0.65;;
44214;SDS011;29884;47.450;19.124;2023-08-30T14:13:25;1.55;;;0.70;;
44214;SDS011;29884;47.450;19.124;2023-08-30T14:15:53;0.80;;;0.40;;
44214;SDS011;29884;47.450;19.124;2023-08-30T14:18:19;1.55;;;0.60;;
44214;SDS011;29884;47.450;19.124;2023-08-30T14:20:45;2.03;;;0.60;;
44214;SDS011;29884;47.450;19.124;2023-08-30T14:23:10;0.90;;;0.57;;
44214;SDS011;29884;47.450;19.124;2023-08-30T14:25:36;0.88;;;0.57;;
44214;SDS011;29884;47.450;19.124;2023-08-30T14:28:02;1.25;;;0.50;;
44214;SDS011;29884;47.450;19.124;2023-08-30T14:30:31;1.20;;;0.60;;
44214;SDS011;29884;47.450;19.124;2023-08-30T14:32:56;3.15;;;0.50;;
44214;SDS011;29884;47.450;19.124;2023-08-30T14:35:22;1.08;;;0.60;;
44214;SDS011;29884;47.450;19.124;2023-08-30T14:37:49;0.95;;;0.60;;
44214;SDS011;29884;47.450;19.124;2023-08-30T14:40:15;0.90;;;0.70;;